createdAt,value
2022-10-26T00:01:18.504Z,11.20
2022-10-26T00:03:46.278Z,11.20
2022-10-26T00:06:14.574Z,11.20
2022-10-26T00:08:41.847Z,11.20
2022-10-26T00:11:09.827Z,11.10
2022-10-26T00:13:38.114Z,11.20
2022-10-26T00:16:31.258Z,11.20
2022-10-26T00:18:58.099Z,11.20
2022-10-26T00:21:24.833Z,11.10
2022-10-26T00:23:51.663Z,11.10
2022-10-26T00:26:18.644Z,11.10
2022-10-26T00:28:45.380Z,11.00
2022-10-26T00:31:14.558Z,11.00
2022-10-26T00:33:41.848Z,11.00
2022-10-26T00:36:10.024Z,11.00
2022-10-26T00:38:37.723Z,11.10
2022-10-26T00:41:04.726Z,11.10
2022-10-26T00:43:31.428Z,11.20
2022-10-26T00:45:59.551Z,11.20
2022-10-26T00:48:31.885Z,11.30
2022-10-26T00:51:02.835Z,11.30
2022-10-26T00:53:30.151Z,11.30
2022-10-26T00:55:56.992Z,11.30
2022-10-26T00:58:24.993Z,11.30
2022-10-26T01:00:52.249Z,11.30
2022-10-26T01:03:20.469Z,11.40
2022-10-26T01:05:49.487Z,11.40
2022-10-26T01:08:17.962Z,11.40
2022-10-26T01:10:45.400Z,11.40
2022-10-26T01:13:15.245Z,11.40
2022-10-26T01:16:10.401Z,11.50
2022-10-26T01:18:43.643Z,11.50
2022-10-26T01:21:16.246Z,11.50
2022-10-26T01:23:55.540Z,11.40
2022-10-26T01:26:43.248Z,11.50
2022-10-26T01:29:53.587Z,11.50
2022-10-26T01:32:31.801Z,11.50
2022-10-26T01:35:13.031Z,11.40
2022-10-26T01:37:48.610Z,11.50
2022-10-26T01:40:34.907Z,11.50
2022-10-26T01:43:07.132Z,11.50
2022-10-26T01:45:35.986Z,11.50
2022-10-26T01:48:04.249Z,11.50
2022-10-26T01:50:32.075Z,11.50
2022-10-26T01:52:59.263Z,11.60
2022-10-26T01:55:41.496Z,11.50
2022-10-26T01:58:22.482Z,11.60
2022-10-26T02:01:01.358Z,11.60
2022-10-26T02:03:40.737Z,11.60
2022-10-26T02:06:18.941Z,11.60
2022-10-26T02:09:18.026Z,11.60
2022-10-26T02:11:48.051Z,11.60
2022-10-26T02:14:17.802Z,11.60
2022-10-26T02:16:58.154Z,11.60
2022-10-26T02:19:43.242Z,11.60
2022-10-26T02:22:20.162Z,11.60
2022-10-26T02:24:47.967Z,11.60
2022-10-26T02:27:22.869Z,11.60
2022-10-26T02:29:53.822Z,11.60
2022-10-26T02:32:23.459Z,11.60
2022-10-26T02:34:52.844Z,11.60
2022-10-26T02:37:21.693Z,11.60
2022-10-26T02:39:50.827Z,11.60
2022-10-26T02:42:19.164Z,11.60
2022-10-26T02:45:00.118Z,11.60
2022-10-26T02:47:27.506Z,11.60
2022-10-26T02:49:55.311Z,11.50
2022-10-26T02:52:34.801Z,11.60
2022-10-26T02:55:07.393Z,11.50
2022-10-26T02:57:39.875Z,11.50
2022-10-26T03:00:12.705Z,11.50
2022-10-26T03:02:43.507Z,11.40
2022-10-26T03:05:25.673Z,11.40
2022-10-26T03:07:52.747Z,11.40
2022-10-26T03:10:20.495Z,11.40
2022-10-26T03:12:48.075Z,11.40
2022-10-26T03:15:15.692Z,11.50
2022-10-26T03:17:42.511Z,11.50
2022-10-26T03:20:10.175Z,11.50
2022-10-26T03:22:36.835Z,11.50
2022-10-26T03:25:04.200Z,11.50
2022-10-26T03:27:31.397Z,11.50
2022-10-26T03:29:58.123Z,11.50
2022-10-26T03:32:24.835Z,11.60
2022-10-26T03:34:51.647Z,11.60
2022-10-26T03:37:18.463Z,11.60
2022-10-26T03:39:45.802Z,11.60
2022-10-26T03:42:12.569Z,11.70
2022-10-26T03:44:39.284Z,11.70
2022-10-26T03:47:06.077Z,11.70
2022-10-26T03:49:32.827Z,11.70
2022-10-26T03:51:59.680Z,11.70
2022-10-26T03:54:26.429Z,11.70
2022-10-26T03:56:55.236Z,11.70
2022-10-26T03:59:22.372Z,11.70
2022-10-26T04:01:52.685Z,11.70
2022-10-26T04:04:22.464Z,11.70
2022-10-26T04:06:49.206Z,11.70
2022-10-26T04:09:15.938Z,11.70
2022-10-26T04:11:42.764Z,11.60
2022-10-26T04:14:09.488Z,11.60
2022-10-26T04:16:36.259Z,11.60
2022-10-26T04:19:03.010Z,11.60
2022-10-26T04:21:29.783Z,11.60
2022-10-26T04:23:56.473Z,11.60
2022-10-26T04:26:23.369Z,11.60
2022-10-26T04:28:50.144Z,11.60
2022-10-26T04:31:16.936Z,11.70
2022-10-26T04:33:43.756Z,11.70
2022-10-26T04:36:10.484Z,11.70
2022-10-26T04:38:37.288Z,11.70
2022-10-26T04:41:04.390Z,11.70
2022-10-26T04:43:31.166Z,11.70
2022-10-26T04:45:58.343Z,11.70
2022-10-26T04:50:52.195Z,11.70
2022-10-26T04:53:18.964Z,11.70
2022-10-26T04:55:45.758Z,11.70
2022-10-26T04:58:12.683Z,11.60
2022-10-26T05:00:39.472Z,11.70
2022-10-26T05:03:07.268Z,11.70
2022-10-26T05:05:36.248Z,11.70
2022-10-26T05:08:03.377Z,11.70
2022-10-26T05:10:30.458Z,11.70
2022-10-26T05:12:59.231Z,11.80
2022-10-26T05:15:26.603Z,11.80
2022-10-26T05:18:05.664Z,11.80
2022-10-26T05:20:35.028Z,11.90
2022-10-26T05:23:06.675Z,11.80
2022-10-26T05:25:36.954Z,11.90
2022-10-26T05:28:08.003Z,11.80
2022-10-26T05:30:34.935Z,11.80
2022-10-26T05:33:03.160Z,11.80
2022-10-26T05:35:31.363Z,11.80
2022-10-26T05:37:58.340Z,11.80
2022-10-26T05:40:25.241Z,11.80
2022-10-26T05:42:52.629Z,11.80
2022-10-26T05:45:20.021Z,11.80
2022-10-26T05:47:47.304Z,11.80
2022-10-26T05:50:14.498Z,11.80
2022-10-26T05:52:46.375Z,11.80
2022-10-26T05:55:15.400Z,11.70
2022-10-26T05:57:42.967Z,11.80
2022-10-26T06:00:14.587Z,11.80
2022-10-26T06:03:03.434Z,11.80
2022-10-26T06:05:37.371Z,11.80
2022-10-26T06:08:09.324Z,11.70
2022-10-26T06:10:37.149Z,11.70
2022-10-26T06:13:04.250Z,11.80
2022-10-26T06:15:37.424Z,11.70
2022-10-26T06:18:49.516Z,11.80
2022-10-26T06:21:55.225Z,11.80
2022-10-26T06:24:48.068Z,11.80
2022-10-26T06:27:37.974Z,11.90
2022-10-26T06:30:09.938Z,11.90
2022-10-26T06:32:37.819Z,11.90
2022-10-26T06:35:35.792Z,11.90
2022-10-26T06:38:08.419Z,11.90
2022-10-26T06:40:37.609Z,11.90
2022-10-26T06:43:09.362Z,12.00
2022-10-26T06:45:37.143Z,12.00
2022-10-26T06:48:06.372Z,12.00
2022-10-26T06:50:52.994Z,12.00
2022-10-26T06:53:37.406Z,12.00
2022-10-26T06:56:04.928Z,12.00
2022-10-26T06:58:36.500Z,12.00
2022-10-26T07:01:04.009Z,12.00
2022-10-26T07:03:31.102Z,12.10
2022-10-26T07:05:58.218Z,12.10
2022-10-26T07:08:25.442Z,12.10
2022-10-26T07:10:52.572Z,12.10
2022-10-26T07:13:19.487Z,12.20
2022-10-26T07:15:46.601Z,12.20
2022-10-26T07:18:13.556Z,12.20
2022-10-26T07:20:41.492Z,12.20
2022-10-26T07:23:11.397Z,12.20
2022-10-26T07:25:40.493Z,12.30
2022-10-26T07:28:10.604Z,12.30
2022-10-26T07:30:39.841Z,12.30
2022-10-26T07:33:12.694Z,12.40
2022-10-26T07:35:40.533Z,12.40
2022-10-26T07:38:07.655Z,12.50
2022-10-26T07:40:38.141Z,12.50
2022-10-26T07:43:05.593Z,12.60
2022-10-26T07:45:32.713Z,12.60
2022-10-26T07:48:00.097Z,12.70
2022-10-26T07:50:27.771Z,12.70
2022-10-26T07:52:56.825Z,12.80
2022-10-26T07:55:23.790Z,12.80
2022-10-26T07:57:54.570Z,13.00
2022-10-26T08:00:22.812Z,13.00
2022-10-26T08:02:50.235Z,13.10
2022-10-26T08:05:18.263Z,13.10
2022-10-26T08:07:46.567Z,13.20
2022-10-26T08:10:14.903Z,13.20
2022-10-26T08:12:43.186Z,13.20
2022-10-26T08:15:11.011Z,13.30
2022-10-26T08:17:38.477Z,13.30
2022-10-26T08:20:06.358Z,13.40
2022-10-26T08:22:33.298Z,13.50
2022-10-26T08:25:00.294Z,13.50
2022-10-26T08:27:27.440Z,13.40
2022-10-26T08:29:54.794Z,13.50
2022-10-26T08:32:21.826Z,13.60
2022-10-26T08:34:48.814Z,13.60
2022-10-26T08:37:16.499Z,13.60
2022-10-26T08:39:43.379Z,13.60
2022-10-26T08:42:21.556Z,13.60
2022-10-26T08:44:58.506Z,13.60
2022-10-26T08:47:43.337Z,13.60
2022-10-26T08:50:24.653Z,13.60
2022-10-26T08:53:04.700Z,13.60
2022-10-26T08:56:13.522Z,13.70
2022-10-26T08:58:46.103Z,13.80
2022-10-26T09:01:13.180Z,13.80
2022-10-26T09:03:43.328Z,13.90
2022-10-26T09:06:18.216Z,14.00
2022-10-26T09:09:06.089Z,14.10
2022-10-26T09:11:57.454Z,14.20
2022-10-26T09:14:49.289Z,14.30
2022-10-26T09:17:24.104Z,14.40
2022-10-26T09:20:05.422Z,14.60
2022-10-26T09:23:05.533Z,14.80
2022-10-26T09:25:39.812Z,15.00
2022-10-26T09:28:15.160Z,15.10
2022-10-26T09:30:44.649Z,15.20
2022-10-26T09:33:16.294Z,15.30
2022-10-26T09:35:52.296Z,15.40
2022-10-26T09:38:34.092Z,15.50
2022-10-26T09:41:06.522Z,15.50
2022-10-26T09:44:06.173Z,15.50
2022-10-26T09:46:43.834Z,15.60
2022-10-26T09:49:13.405Z,15.70
2022-10-26T09:51:42.926Z,15.80
2022-10-26T09:54:16.439Z,15.80
2022-10-26T09:56:51.472Z,15.90
2022-10-26T09:59:21.591Z,15.90
2022-10-26T10:01:48.733Z,16.00
2022-10-26T10:04:24.646Z,16.00
2022-10-26T10:07:01.870Z,16.10
2022-10-26T10:09:29.188Z,16.20
2022-10-26T10:12:02.589Z,16.20
2022-10-26T10:14:39.841Z,16.30
2022-10-26T10:17:10.845Z,16.40
2022-10-26T10:19:39.055Z,16.50
2022-10-26T10:22:09.070Z,16.50
2022-10-26T10:24:40.730Z,16.50
2022-10-26T10:27:16.349Z,16.60
2022-10-26T10:29:49.909Z,16.70
2022-10-26T10:32:23.245Z,16.80
2022-10-26T10:34:57.696Z,16.80
2022-10-26T10:37:32.392Z,16.90
2022-10-26T10:40:08.080Z,16.90
2022-10-26T10:42:38.693Z,16.90
2022-10-26T10:45:07.340Z,17.00
2022-10-26T10:47:36.526Z,17.00
2022-10-26T10:50:06.346Z,17.10
2022-10-26T10:52:35.596Z,17.20
2022-10-26T10:55:16.218Z,17.20
2022-10-26T10:58:10.793Z,17.20
2022-10-26T11:00:43.618Z,17.30
2022-10-26T11:03:32.293Z,17.30
2022-10-26T11:06:21.468Z,17.30
2022-10-26T11:09:03.911Z,17.40
2022-10-26T11:11:46.047Z,17.40
2022-10-26T11:14:30.653Z,17.40
2022-10-26T11:17:14.899Z,17.50
2022-10-26T11:20:15.313Z,17.50
2022-10-26T11:23:21.084Z,17.60
2022-10-26T11:25:53.696Z,17.70
2022-10-26T11:28:32.910Z,17.70
2022-10-26T11:31:06.090Z,17.70
2022-10-26T11:33:48.301Z,17.70
2022-10-26T11:36:22.887Z,17.80
2022-10-26T11:39:17.857Z,17.80
2022-10-26T11:42:01.232Z,17.80
2022-10-26T11:44:37.982Z,17.80
2022-10-26T11:47:13.465Z,17.80
2022-10-26T11:50:12.179Z,17.80
2022-10-26T11:52:58.511Z,17.80
2022-10-26T11:55:25.329Z,17.90
2022-10-26T11:57:55.448Z,17.90
2022-10-26T12:00:23.287Z,18.00
2022-10-26T12:03:07.314Z,18.00
2022-10-26T12:05:41.249Z,18.00
2022-10-26T12:08:37.445Z,18.10
2022-10-26T12:11:31.685Z,18.10
2022-10-26T12:14:15.575Z,18.10
2022-10-26T12:16:51.993Z,18.10
2022-10-26T12:22:00.206Z,18.20
2022-10-26T12:24:30.068Z,18.30
2022-10-26T12:27:02.814Z,18.30
2022-10-26T12:29:37.326Z,18.30
2022-10-26T12:32:28.075Z,18.40
2022-10-26T12:34:54.923Z,18.40
2022-10-26T12:37:37.695Z,18.50
2022-10-26T12:40:33.042Z,18.50
2022-10-26T12:43:18.060Z,18.50
2022-10-26T12:46:06.157Z,18.50
2022-10-26T12:48:47.454Z,18.50
2022-10-26T12:51:24.664Z,18.50
2022-10-26T12:53:57.529Z,18.50
2022-10-26T12:56:36.902Z,18.50
2022-10-26T12:59:09.350Z,18.40
2022-10-26T13:04:32.323Z,18.50
2022-10-26T13:07:26.016Z,18.50
2022-10-26T13:10:14.058Z,18.50
2022-10-26T13:12:59.496Z,18.50
2022-10-26T13:15:39.692Z,18.50
2022-10-26T13:18:20.191Z,18.50
2022-10-26T13:21:13.580Z,18.50
2022-10-26T13:24:06.829Z,18.50
2022-10-26T13:27:07.312Z,18.50
2022-10-26T13:30:03.267Z,18.50
2022-10-26T13:32:42.794Z,18.60
2022-10-26T13:35:14.924Z,18.50
2022-10-26T13:37:47.069Z,18.50
2022-10-26T13:40:21.256Z,18.50
2022-10-26T13:42:57.420Z,18.50
2022-10-26T13:45:48.733Z,18.50
2022-10-26T13:48:24.369Z,18.50
2022-10-26T13:50:54.070Z,18.50
2022-10-26T13:53:40.424Z,18.50
2022-10-26T13:56:32.241Z,18.50
2022-10-26T13:59:03.669Z,18.60
2022-10-26T14:01:33.844Z,18.60
2022-10-26T14:04:15.769Z,18.60
2022-10-26T14:06:49.761Z,18.60
2022-10-26T14:09:18.682Z,18.60
2022-10-26T14:12:01.762Z,18.60
2022-10-26T14:14:37.752Z,18.60
2022-10-26T14:17:05.357Z,18.60
2022-10-26T14:19:39.464Z,18.60
2022-10-26T14:22:07.027Z,18.60
2022-10-26T14:24:47.285Z,18.60
2022-10-26T14:27:18.045Z,18.60
2022-10-26T14:29:49.960Z,18.60
2022-10-26T14:32:33.763Z,18.60
2022-10-26T14:35:00.645Z,18.60
2022-10-26T14:37:54.999Z,18.60
2022-10-26T14:40:28.695Z,18.60
2022-10-26T14:42:58.152Z,18.60
2022-10-26T14:45:47.697Z,18.50
2022-10-26T14:48:41.849Z,18.50
2022-10-26T14:51:16.142Z,18.50
2022-10-26T14:53:50.894Z,18.50
2022-10-26T14:56:35.998Z,18.40
2022-10-26T14:59:26.189Z,18.50
2022-10-26T15:02:11.230Z,18.40
2022-10-26T15:04:40.436Z,18.40
2022-10-26T15:07:12.055Z,18.40
2022-10-26T15:09:43.271Z,18.40
2022-10-26T15:12:45.622Z,18.30
2022-10-26T15:15:14.899Z,18.40
2022-10-26T15:17:48.321Z,18.30
2022-10-26T15:20:21.664Z,18.30
2022-10-26T15:22:57.073Z,18.20
2022-10-26T15:25:29.936Z,18.20
2022-10-26T15:28:20.619Z,18.20
2022-10-26T15:31:07.485Z,18.10
2022-10-26T15:33:35.104Z,18.10
2022-10-26T15:36:20.166Z,18.00
2022-10-26T15:38:50.938Z,18.00
2022-10-26T15:41:29.655Z,17.90
2022-10-26T15:43:59.373Z,17.90
2022-10-26T15:46:30.378Z,17.80
2022-10-26T15:49:00.699Z,17.80
2022-10-26T15:51:29.893Z,17.70
2022-10-26T15:54:02.902Z,17.70
2022-10-26T15:56:33.218Z,17.60
2022-10-26T15:59:00.036Z,17.60
2022-10-26T16:01:29.173Z,17.50
2022-10-26T16:03:55.988Z,17.50
2022-10-26T16:06:32.516Z,17.40
2022-10-26T16:09:01.898Z,17.40
2022-10-26T16:11:28.883Z,17.30
2022-10-26T16:13:58.292Z,17.30
2022-10-26T16:16:28.073Z,17.20
2022-10-26T16:19:11.709Z,17.10
2022-10-26T16:21:39.008Z,17.10
2022-10-26T16:24:06.040Z,17.00
2022-10-26T16:26:32.739Z,16.90
2022-10-26T16:28:59.608Z,16.90
2022-10-26T16:31:26.429Z,16.90
2022-10-26T16:33:53.261Z,16.80
2022-10-26T16:36:20.250Z,16.80
2022-10-26T16:38:47.593Z,16.80
2022-10-26T16:41:17.131Z,16.70
2022-10-26T16:43:44.966Z,16.60
2022-10-26T16:46:17.310Z,16.60
2022-10-26T16:48:45.629Z,16.50
2022-10-26T16:51:19.320Z,16.50
2022-10-26T16:53:51.569Z,16.40
2022-10-26T16:56:21.116Z,16.40
2022-10-26T16:58:48.000Z,16.30
2022-10-26T17:01:18.824Z,16.30
2022-10-26T17:03:50.851Z,16.20
2022-10-26T17:06:18.657Z,16.20
2022-10-26T17:08:45.410Z,16.10
2022-10-26T17:11:20.425Z,16.10
2022-10-26T17:13:52.793Z,16.00
2022-10-26T17:16:21.589Z,16.00
2022-10-26T17:18:48.995Z,15.90
2022-10-26T17:21:18.792Z,15.90
2022-10-26T17:23:45.644Z,15.80
2022-10-26T17:26:14.390Z,15.80
2022-10-26T17:28:41.389Z,15.80
2022-10-26T17:31:13.319Z,15.70
2022-10-26T17:33:42.757Z,15.70
2022-10-26T17:36:11.353Z,15.60
2022-10-26T17:38:40.981Z,15.60
2022-10-26T17:41:10.400Z,15.60
2022-10-26T17:43:39.371Z,15.50
2022-10-26T17:46:18.599Z,15.50
2022-10-26T17:48:48.038Z,15.50
2022-10-26T17:51:17.311Z,15.50
2022-10-26T17:53:47.644Z,15.40
2022-10-26T17:56:25.771Z,15.40
2022-10-26T17:58:58.411Z,15.40
2022-10-26T18:01:26.216Z,15.40
2022-10-26T18:03:54.778Z,15.30
2022-10-26T18:06:22.527Z,15.30
2022-10-26T18:08:49.204Z,15.30
2022-10-26T18:11:26.547Z,15.30
2022-10-26T18:13:55.263Z,15.20
2022-10-26T18:16:23.149Z,15.20
2022-10-26T18:18:58.753Z,15.20
2022-10-26T18:21:26.266Z,15.20
2022-10-26T18:23:53.802Z,15.20
2022-10-26T18:26:23.283Z,15.20
2022-10-26T18:28:50.115Z,15.20
2022-10-26T18:31:19.585Z,15.20
2022-10-26T18:33:46.499Z,15.10
2022-10-26T18:36:15.702Z,15.20
2022-10-26T18:38:43.017Z,15.20
2022-10-26T18:41:14.182Z,15.20
2022-10-26T18:43:42.772Z,15.30
2022-10-26T18:46:18.957Z,15.30
2022-10-26T18:48:48.398Z,15.30
2022-10-26T18:51:18.107Z,15.40
2022-10-26T18:53:46.170Z,15.40
2022-10-26T18:56:15.737Z,15.40
2022-10-26T18:58:45.140Z,15.40
2022-10-26T19:01:16.316Z,15.50
2022-10-26T19:03:44.272Z,15.50
2022-10-26T19:06:23.274Z,15.50
2022-10-26T19:08:50.418Z,15.50
2022-10-26T19:11:19.538Z,15.50
2022-10-26T19:13:46.921Z,15.50
2022-10-26T19:16:26.807Z,15.50
2022-10-26T19:19:01.169Z,15.50
2022-10-26T19:21:29.422Z,15.40
2022-10-26T19:23:58.519Z,15.40
2022-10-26T19:26:33.404Z,15.40
2022-10-26T19:29:06.887Z,15.40
2022-10-26T19:31:35.663Z,15.40
2022-10-26T19:34:03.206Z,15.30
2022-10-26T19:36:30.362Z,15.30
2022-10-26T19:38:57.484Z,15.30
2022-10-26T19:41:26.722Z,15.20
2022-10-26T19:43:54.920Z,15.20
2022-10-26T19:46:24.555Z,15.20
2022-10-26T19:48:57.421Z,15.10
2022-10-26T19:51:26.271Z,15.20
2022-10-26T19:53:53.766Z,15.10
2022-10-26T19:56:22.491Z,15.10
2022-10-26T19:58:50.863Z,15.10
2022-10-26T20:01:18.185Z,15.10
2022-10-26T20:04:36.543Z,15.10
2022-10-26T20:07:03.726Z,15.10
2022-10-26T20:09:32.460Z,15.00
2022-10-26T20:11:59.529Z,14.90
2022-10-26T20:14:26.335Z,14.90
2022-10-26T20:16:55.398Z,14.90
2022-10-26T20:19:22.317Z,14.90
2022-10-26T20:21:49.220Z,14.80
2022-10-26T20:24:16.138Z,14.80
2022-10-26T20:26:42.899Z,14.80
2022-10-26T20:29:10.361Z,14.70
2022-10-26T20:31:37.186Z,14.70
2022-10-26T20:34:04.068Z,14.60
2022-10-26T20:36:30.899Z,14.60
2022-10-26T20:38:58.031Z,14.60
2022-10-26T20:41:25.412Z,14.50
2022-10-26T20:43:55.663Z,14.50
2022-10-26T20:46:27.012Z,14.50
2022-10-26T20:48:54.646Z,14.50
2022-10-26T20:52:15.397Z,14.40
2022-10-26T20:54:48.445Z,14.40
2022-10-26T20:57:19.255Z,14.40
2022-10-26T21:00:03.909Z,14.30
2022-10-26T21:02:31.234Z,14.40
2022-10-26T21:04:58.045Z,14.30
2022-10-26T21:07:25.086Z,14.30
2022-10-26T21:09:52.032Z,14.30
2022-10-26T21:12:18.817Z,14.30
2022-10-26T21:14:45.708Z,14.20
2022-10-26T21:17:12.488Z,14.20
2022-10-26T21:19:39.457Z,14.20
2022-10-26T21:22:06.306Z,14.10
2022-10-26T21:24:33.138Z,14.10
2022-10-26T21:27:00.106Z,14.10
2022-10-26T21:29:26.993Z,14.10
2022-10-26T21:31:53.798Z,14.10
2022-10-26T21:34:20.635Z,14.10
2022-10-26T21:36:47.589Z,14.10
2022-10-26T21:39:14.632Z,14.10
2022-10-26T21:41:43.124Z,14.10
2022-10-26T21:44:23.216Z,14.10
2022-10-26T21:46:56.839Z,14.10
2022-10-26T21:49:23.568Z,14.10
2022-10-26T21:51:50.446Z,14.10
2022-10-26T21:54:17.295Z,14.10
2022-10-26T21:56:44.059Z,14.00
2022-10-26T21:59:10.987Z,14.00
2022-10-26T22:01:37.949Z,14.00
2022-10-26T22:04:05.104Z,14.00
2022-10-26T22:06:32.105Z,14.00
2022-10-26T22:08:58.964Z,14.00
2022-10-26T22:11:25.783Z,14.00
2022-10-26T22:13:53.658Z,14.00
2022-10-26T22:16:23.675Z,14.00
2022-10-26T22:18:52.907Z,14.00
2022-10-26T22:21:21.247Z,13.90
2022-10-26T22:23:48.300Z,13.90
2022-10-26T22:26:23.789Z,13.90
2022-10-26T22:28:53.231Z,13.90
2022-10-26T22:31:25.769Z,13.90
2022-10-26T22:33:59.743Z,13.90
2022-10-26T22:36:28.231Z,13.90
2022-10-26T22:38:55.409Z,13.80
2022-10-26T22:41:23.214Z,13.80
2022-10-26T22:43:50.747Z,13.80
2022-10-26T22:46:25.628Z,13.80
2022-10-26T22:49:00.966Z,13.70
2022-10-26T22:51:31.335Z,13.70
2022-10-26T22:53:59.734Z,13.60
2022-10-26T22:58:54.114Z,13.60
2022-10-26T23:01:24.104Z,13.60
2022-10-26T23:03:51.934Z,13.60
2022-10-26T23:06:19.986Z,13.50
2022-10-26T23:08:47.034Z,13.50
2022-10-26T23:11:17.093Z,13.50
2022-10-26T23:13:44.037Z,13.50
2022-10-26T23:16:16.198Z,13.50
2022-10-26T23:18:43.079Z,13.50
2022-10-26T23:21:12.635Z,13.50
2022-10-26T23:23:40.442Z,13.50
2022-10-26T23:26:09.946Z,13.40
2022-10-26T23:28:37.172Z,13.40
2022-10-26T23:31:04.388Z,13.40
2022-10-26T23:33:31.998Z,13.40
2022-10-26T23:35:59.109Z,13.40
2022-10-26T23:38:26.821Z,13.40
2022-10-26T23:40:54.848Z,13.30
2022-10-26T23:43:22.482Z,13.30
2022-10-26T23:45:49.497Z,13.20
2022-10-26T23:48:17.258Z,13.20
2022-10-26T23:50:45.284Z,13.20
2022-10-26T23:53:13.522Z,13.20
2022-10-26T23:55:40.548Z,13.30
2022-10-26T23:58:07.352Z,13.20
